sensor_id;sensor_type;location;lat;lon;timestamp;P1;durP1;ratioP1;P2;durP2;ratioP2
20697;SDS011;10508;50.956;4.640;2022-11-28T00:01:02;3.95;;;2.20;;
20697;SDS011;10508;50.956;4.640;2022-11-28T00:03:30;3.85;;;1.50;;
20697;SDS011;10508;50.956;4.640;2022-11-28T00:05:56;4.57;;;1.98;;
20697;SDS011;10508;50.956;4.640;2022-11-28T00:08:26;6.90;;;1.80;;
20697;SDS011;10508;50.956;4.640;2022-11-28T00:10:51;4.53;;;1.33;;
20697;SDS011;10508;50.956;4.640;2022-11-28T00:13:17;3.80;;;1.52;;
20697;SDS011;10508;50.956;4.640;2022-11-28T00:15:43;3.17;;;1.33;;
20697;SDS011;10508;50.956;4.640;2022-11-28T00:18:08;2.72;;;1.40;;
20697;SDS011;10508;50.956;4.640;2022-11-28T00:20:35;3.50;;;1.85;;
20697;SDS011;10508;50.956;4.640;2022-11-28T00:23:01;2.80;;;1.52;;
20697;SDS011;10508;50.956;4.640;2022-11-28T00:25:26;3.75;;;1.50;;
20697;SDS011;10508;50.956;4.640;2022-11-28T00:27:52;3.42;;;1.83;;
20697;SDS011;10508;50.956;4.640;2022-11-28T00:30:17;8.77;;;1.95;;
20697;SDS011;10508;50.956;4.640;2022-11-28T00:32:43;6.00;;;2.35;;
20697;SDS011;10508;50.956;4.640;2022-11-28T00:35:08;7.78;;;2.08;;
20697;SDS011;10508;50.956;4.640;2022-11-28T00:37:34;1.42;;;1.10;;
20697;SDS011;10508;50.956;4.640;2022-11-28T00:40:00;4.22;;;1.73;;
20697;SDS011;10508;50.956;4.640;2022-11-28T00:42:25;6.40;;;1.60;;
20697;SDS011;10508;50.956;4.640;2022-11-28T00:44:51;2.55;;;1.15;;
20697;SDS011;10508;50.956;4.640;2022-11-28T00:47:16;2.60;;;1.58;;
20697;SDS011;10508;50.956;4.640;2022-11-28T00:49:42;3.33;;;1.40;;
20697;SDS011;10508;50.956;4.640;2022-11-28T00:52:08;3.75;;;1.45;;
20697;SDS011;10508;50.956;4.640;2022-11-28T00:54:33;2.33;;;1.27;;
20697;SDS011;10508;50.956;4.640;2022-11-28T00:56:59;3.22;;;1.63;;
20697;SDS011;10508;50.956;4.640;2022-11-28T00:59:24;6.50;;;1.52;;
20697;SDS011;10508;50.956;4.640;2022-11-28T01:01:50;2.72;;;1.58;;
20697;SDS011;10508;50.956;4.640;2022-11-28T01:04:16;3.33;;;1.77;;
20697;SDS011;10508;50.956;4.640;2022-11-28T01:06:45;2.50;;;1.33;;
20697;SDS011;10508;50.956;4.640;2022-11-28T01:09:13;3.63;;;1.30;;
20697;SDS011;10508;50.956;4.640;2022-11-28T01:11:45;2.83;;;1.88;;
20697;SDS011;10508;50.956;4.640;2022-11-28T01:14:13;2.88;;;1.55;;
20697;SDS011;10508;50.956;4.640;2022-11-28T01:16:40;2.85;;;1.33;;
20697;SDS011;10508;50.956;4.640;2022-11-28T01:19:06;4.78;;;1.77;;
20697;SDS011;10508;50.956;4.640;2022-11-28T01:21:32;3.05;;;1.90;;
20697;SDS011;10508;50.956;4.640;2022-11-28T01:23:58;3.92;;;1.23;;
20697;SDS011;10508;50.956;4.640;2022-11-28T01:26:25;2.80;;;1.50;;
20697;SDS011;10508;50.956;4.640;2022-11-28T01:28:52;3.90;;;1.30;;
20697;SDS011;10508;50.956;4.640;2022-11-28T01:31:20;2.90;;;1.40;;
20697;SDS011;10508;50.956;4.640;2022-11-28T01:33:47;2.63;;;1.55;;
20697;SDS011;10508;50.956;4.640;2022-11-28T01:36:14;4.50;;;2.00;;
20697;SDS011;10508;50.956;4.640;2022-11-28T01:38:40;3.72;;;1.83;;
20697;SDS011;10508;50.956;4.640;2022-11-28T01:41:06;4.35;;;1.65;;
20697;SDS011;10508;50.956;4.640;2022-11-28T01:43:32;3.58;;;1.83;;
20697;SDS011;10508;50.956;4.640;2022-11-28T01:45:59;3.50;;;1.40;;
20697;SDS011;10508;50.956;4.640;2022-11-28T01:48:26;2.15;;;1.42;;
20697;SDS011;10508;50.956;4.640;2022-11-28T01:50:55;2.85;;;1.23;;
20697;SDS011;10508;50.956;4.640;2022-11-28T01:53:27;3.25;;;1.58;;
20697;SDS011;10508;50.956;4.640;2022-11-28T01:55:55;3.25;;;1.60;;
20697;SDS011;10508;50.956;4.640;2022-11-28T01:58:24;3.78;;;1.90;;
20697;SDS011;10508;50.956;4.640;2022-11-28T02:00:51;3.97;;;1.50;;
20697;SDS011;10508;50.956;4.640;2022-11-28T02:03:22;6.90;;;2.13;;
20697;SDS011;10508;50.956;4.640;2022-11-28T02:05:51;4.45;;;1.73;;
20697;SDS011;10508;50.956;4.640;2022-11-28T02:08:17;3.45;;;1.88;;
20697;SDS011;10508;50.956;4.640;2022-11-28T02:16:57;6.47;;;1.90;;
20697;SDS011;10508;50.956;4.640;2022-11-28T02:34:47;6.32;;;2.28;;
20697;SDS011;10508;50.956;4.640;2022-11-28T02:40:24;7.30;;;2.30;;
20697;SDS011;10508;50.956;4.640;2022-11-28T02:45:23;5.45;;;1.77;;
20697;SDS011;10508;50.956;4.640;2022-11-28T02:48:08;3.20;;;1.90;;
20697;SDS011;10508;50.956;4.640;2022-11-28T02:50:50;4.97;;;1.80;;
20697;SDS011;10508;50.956;4.640;2022-11-28T02:53:25;3.70;;;1.83;;
20697;SDS011;10508;50.956;4.640;2022-11-28T02:55:54;2.63;;;1.70;;
20697;SDS011;10508;50.956;4.640;2022-11-28T02:58:21;5.28;;;1.83;;
20697;SDS011;10508;50.956;4.640;2022-11-28T03:00:47;5.15;;;1.90;;
20697;SDS011;10508;50.956;4.640;2022-11-28T03:11:04;4.95;;;1.80;;
20697;SDS011;10508;50.956;4.640;2022-11-28T03:16:29;3.17;;;1.98;;
20697;SDS011;10508;50.956;4.640;2022-11-28T03:19:11;3.95;;;2.08;;
20697;SDS011;10508;50.956;4.640;2022-11-28T03:21:50;5.78;;;1.98;;
20697;SDS011;10508;50.956;4.640;2022-11-28T03:24:37;3.97;;;2.10;;
20697;SDS011;10508;50.956;4.640;2022-11-28T03:27:20;3.22;;;2.03;;
20697;SDS011;10508;50.956;4.640;2022-11-28T03:29:53;4.65;;;2.13;;
20697;SDS011;10508;50.956;4.640;2022-11-28T03:32:27;4.15;;;2.03;;
20697;SDS011;10508;50.956;4.640;2022-11-28T03:35:01;7.85;;;2.03;;
20697;SDS011;10508;50.956;4.640;2022-11-28T03:37:54;2.92;;;1.90;;
20697;SDS011;10508;50.956;4.640;2022-11-28T03:40:26;5.28;;;2.13;;
20697;SDS011;10508;50.956;4.640;2022-11-28T03:42:57;4.38;;;2.25;;
20697;SDS011;10508;50.956;4.640;2022-11-28T03:45:28;2.03;;;1.48;;
20697;SDS011;10508;50.956;4.640;2022-11-28T03:48:11;3.38;;;1.92;;
20697;SDS011;10508;50.956;4.640;2022-11-28T03:50:57;3.38;;;2.00;;
20697;SDS011;10508;50.956;4.640;2022-11-28T03:53:35;4.70;;;2.35;;
20697;SDS011;10508;50.956;4.640;2022-11-28T03:56:21;2.20;;;1.40;;
20697;SDS011;10508;50.956;4.640;2022-11-28T03:59:03;4.32;;;2.20;;
20697;SDS011;10508;50.956;4.640;2022-11-28T04:02:12;3.63;;;1.60;;
20697;SDS011;10508;50.956;4.640;2022-11-28T04:04:56;5.78;;;2.38;;
20697;SDS011;10508;50.956;4.640;2022-11-28T04:07:46;4.78;;;1.92;;
20697;SDS011;10508;50.956;4.640;2022-11-28T04:10:35;2.53;;;1.55;;
20697;SDS011;10508;50.956;4.640;2022-11-28T04:21:18;4.45;;;1.67;;
20697;SDS011;10508;50.956;4.640;2022-11-28T04:23:44;3.30;;;1.90;;
20697;SDS011;10508;50.956;4.640;2022-11-28T04:26:19;2.53;;;1.83;;
20697;SDS011;10508;50.956;4.640;2022-11-28T04:28:51;3.03;;;1.98;;
20697;SDS011;10508;50.956;4.640;2022-11-28T04:31:18;3.25;;;2.08;;
20697;SDS011;10508;50.956;4.640;2022-11-28T04:33:48;4.18;;;2.13;;
20697;SDS011;10508;50.956;4.640;2022-11-28T04:36:17;4.20;;;1.90;;
20697;SDS011;10508;50.956;4.640;2022-11-28T04:38:44;3.80;;;1.63;;
20697;SDS011;10508;50.956;4.640;2022-11-28T04:41:21;3.53;;;1.75;;
20697;SDS011;10508;50.956;4.640;2022-11-28T04:43:58;3.25;;;1.75;;
20697;SDS011;10508;50.956;4.640;2022-11-28T04:46:31;3.13;;;1.80;;
20697;SDS011;10508;50.956;4.640;2022-11-28T04:49:03;3.50;;;1.92;;
20697;SDS011;10508;50.956;4.640;2022-11-28T04:51:43;4.00;;;1.80;;
20697;SDS011;10508;50.956;4.640;2022-11-28T04:54:18;2.85;;;1.33;;
20697;SDS011;10508;50.956;4.640;2022-11-28T04:56:58;5.32;;;1.60;;
20697;SDS011;10508;50.956;4.640;2022-11-28T04:59:26;3.15;;;1.42;;
20697;SDS011;10508;50.956;4.640;2022-11-28T05:01:55;2.65;;;1.60;;
20697;SDS011;10508;50.956;4.640;2022-11-28T05:04:22;2.88;;;1.80;;
20697;SDS011;10508;50.956;4.640;2022-11-28T05:06:48;2.47;;;1.50;;
20697;SDS011;10508;50.956;4.640;2022-11-28T05:09:14;4.20;;;1.88;;
20697;SDS011;10508;50.956;4.640;2022-11-28T05:11:39;2.83;;;1.50;;
20697;SDS011;10508;50.956;4.640;2022-11-28T05:14:05;3.50;;;1.83;;
20697;SDS011;10508;50.956;4.640;2022-11-28T05:16:31;2.63;;;1.88;;
20697;SDS011;10508;50.956;4.640;2022-11-28T05:18:56;3.15;;;1.55;;
20697;SDS011;10508;50.956;4.640;2022-11-28T05:21:22;2.50;;;1.40;;
20697;SDS011;10508;50.956;4.640;2022-11-28T05:23:59;3.45;;;1.40;;
20697;SDS011;10508;50.956;4.640;2022-11-28T05:26:25;2.70;;;1.80;;
20697;SDS011;10508;50.956;4.640;2022-11-28T05:28:51;1.95;;;1.48;;
20697;SDS011;10508;50.956;4.640;2022-11-28T05:31:17;4.25;;;2.35;;
20697;SDS011;10508;50.956;4.640;2022-11-28T05:33:45;4.22;;;1.92;;
20697;SDS011;10508;50.956;4.640;2022-11-28T05:36:11;7.65;;;2.40;;
20697;SDS011;10508;50.956;4.640;2022-11-28T05:38:38;3.63;;;2.03;;
20697;SDS011;10508;50.956;4.640;2022-11-28T05:41:03;5.75;;;2.70;;
20697;SDS011;10508;50.956;4.640;2022-11-28T05:43:29;5.97;;;2.10;;
20697;SDS011;10508;50.956;4.640;2022-11-28T05:45:55;4.60;;;2.45;;
20697;SDS011;10508;50.956;4.640;2022-11-28T05:48:21;3.20;;;1.98;;
20697;SDS011;10508;50.956;4.640;2022-11-28T05:50:48;5.05;;;2.40;;
20697;SDS011;10508;50.956;4.640;2022-11-28T05:53:15;6.20;;;3.63;;
20697;SDS011;10508;50.956;4.640;2022-11-28T05:55:41;4.35;;;2.80;;
20697;SDS011;10508;50.956;4.640;2022-11-28T05:58:07;5.72;;;3.28;;
20697;SDS011;10508;50.956;4.640;2022-11-28T06:00:52;5.50;;;3.33;;
20697;SDS011;10508;50.956;4.640;2022-11-28T06:03:17;5.85;;;3.10;;
20697;SDS011;10508;50.956;4.640;2022-11-28T06:05:43;6.60;;;3.17;;
20697;SDS011;10508;50.956;4.640;2022-11-28T06:08:09;6.78;;;3.70;;
20697;SDS011;10508;50.956;4.640;2022-11-28T06:10:36;7.82;;;3.65;;
20697;SDS011;10508;50.956;4.640;2022-11-28T06:13:02;7.30;;;3.55;;
20697;SDS011;10508;50.956;4.640;2022-11-28T06:15:29;5.55;;;3.35;;
20697;SDS011;10508;50.956;4.640;2022-11-28T06:17:56;6.78;;;3.58;;
20697;SDS011;10508;50.956;4.640;2022-11-28T06:20:21;6.57;;;3.40;;
20697;SDS011;10508;50.956;4.640;2022-11-28T06:22:47;6.45;;;3.30;;
20697;SDS011;10508;50.956;4.640;2022-11-28T06:25:12;9.73;;;3.88;;
20697;SDS011;10508;50.956;4.640;2022-11-28T06:27:38;6.90;;;3.85;;
20697;SDS011;10508;50.956;4.640;2022-11-28T06:30:04;7.55;;;4.03;;
20697;SDS011;10508;50.956;4.640;2022-11-28T06:32:30;13.25;;;4.65;;
20697;SDS011;10508;50.956;4.640;2022-11-28T06:34:56;9.00;;;4.13;;
20697;SDS011;10508;50.956;4.640;2022-11-28T06:37:22;9.98;;;3.85;;
20697;SDS011;10508;50.956;4.640;2022-11-28T06:39:47;8.27;;;3.83;;
20697;SDS011;10508;50.956;4.640;2022-11-28T06:42:15;6.68;;;4.03;;
20697;SDS011;10508;50.956;4.640;2022-11-28T06:44:41;6.97;;;3.83;;
20697;SDS011;10508;50.956;4.640;2022-11-28T06:47:07;6.43;;;4.18;;
20697;SDS011;10508;50.956;4.640;2022-11-28T06:49:32;10.27;;;4.47;;
20697;SDS011;10508;50.956;4.640;2022-11-28T06:51:58;9.15;;;4.55;;
20697;SDS011;10508;50.956;4.640;2022-11-28T06:54:24;7.78;;;4.63;;
20697;SDS011;10508;50.956;4.640;2022-11-28T06:56:49;5.97;;;3.50;;
20697;SDS011;10508;50.956;4.640;2022-11-28T06:59:15;5.95;;;3.70;;
20697;SDS011;10508;50.956;4.640;2022-11-28T07:01:40;8.70;;;4.68;;
20697;SDS011;10508;50.956;4.640;2022-11-28T07:04:06;7.95;;;4.63;;
20697;SDS011;10508;50.956;4.640;2022-11-28T07:06:33;6.53;;;3.88;;
20697;SDS011;10508;50.956;4.640;2022-11-28T07:08:58;7.65;;;4.63;;
20697;SDS011;10508;50.956;4.640;2022-11-28T07:11:25;7.57;;;4.57;;
20697;SDS011;10508;50.956;4.640;2022-11-28T07:13:53;9.00;;;4.55;;
20697;SDS011;10508;50.956;4.640;2022-11-28T07:16:20;7.88;;;4.35;;
20697;SDS011;10508;50.956;4.640;2022-11-28T07:18:48;12.07;;;5.82;;
20697;SDS011;10508;50.956;4.640;2022-11-28T07:21:14;8.73;;;5.32;;
20697;SDS011;10508;50.956;4.640;2022-11-28T07:23:41;9.38;;;4.97;;
20697;SDS011;10508;50.956;4.640;2022-11-28T07:26:08;7.50;;;4.05;;
20697;SDS011;10508;50.956;4.640;2022-11-28T07:28:35;8.93;;;4.65;;
20697;SDS011;10508;50.956;4.640;2022-11-28T07:31:05;8.32;;;4.60;;
20697;SDS011;10508;50.956;4.640;2022-11-28T07:33:34;7.78;;;4.40;;
20697;SDS011;10508;50.956;4.640;2022-11-28T07:36:01;7.95;;;4.53;;
20697;SDS011;10508;50.956;4.640;2022-11-28T07:38:30;8.60;;;4.15;;
20697;SDS011;10508;50.956;4.640;2022-11-28T07:41:02;6.70;;;4.05;;
20697;SDS011;10508;50.956;4.640;2022-11-28T07:43:32;8.40;;;4.40;;
20697;SDS011;10508;50.956;4.640;2022-11-28T07:45:58;4.85;;;3.25;;
20697;SDS011;10508;50.956;4.640;2022-11-28T07:48:27;7.82;;;3.92;;
20697;SDS011;10508;50.956;4.640;2022-11-28T07:50:53;5.60;;;3.20;;
20697;SDS011;10508;50.956;4.640;2022-11-28T07:53:19;5.68;;;3.58;;
20697;SDS011;10508;50.956;4.640;2022-11-28T07:55:44;7.07;;;3.53;;
20697;SDS011;10508;50.956;4.640;2022-11-28T07:58:10;6.85;;;3.78;;
20697;SDS011;10508;50.956;4.640;2022-11-28T08:00:36;5.85;;;3.10;;
20697;SDS011;10508;50.956;4.640;2022-11-28T08:03:01;6.00;;;3.65;;
20697;SDS011;10508;50.956;4.640;2022-11-28T08:05:27;6.28;;;2.92;;
20697;SDS011;10508;50.956;4.640;2022-11-28T08:07:52;5.65;;;3.00;;
20697;SDS011;10508;50.956;4.640;2022-11-28T08:10:18;6.10;;;3.33;;
20697;SDS011;10508;50.956;4.640;2022-11-28T08:12:44;5.15;;;2.90;;
20697;SDS011;10508;50.956;4.640;2022-11-28T08:15:10;5.40;;;2.50;;
20697;SDS011;10508;50.956;4.640;2022-11-28T08:17:36;6.57;;;3.05;;
20697;SDS011;10508;50.956;4.640;2022-11-28T08:20:02;4.40;;;2.58;;
20697;SDS011;10508;50.956;4.640;2022-11-28T08:22:28;4.22;;;2.67;;
20697;SDS011;10508;50.956;4.640;2022-11-28T08:24:53;4.53;;;2.60;;
20697;SDS011;10508;50.956;4.640;2022-11-28T08:27:19;3.95;;;2.45;;
20697;SDS011;10508;50.956;4.640;2022-11-28T08:29:44;4.07;;;2.60;;
20697;SDS011;10508;50.956;4.640;2022-11-28T08:32:10;4.63;;;2.63;;
20697;SDS011;10508;50.956;4.640;2022-11-28T08:34:36;5.18;;;2.78;;
20697;SDS011;10508;50.956;4.640;2022-11-28T08:37:01;4.03;;;2.58;;
20697;SDS011;10508;50.956;4.640;2022-11-28T08:39:27;7.95;;;3.88;;
20697;SDS011;10508;50.956;4.640;2022-11-28T08:41:53;4.32;;;2.50;;
20697;SDS011;10508;50.956;4.640;2022-11-28T08:44:23;17.08;;;3.65;;
20697;SDS011;10508;50.956;4.640;2022-11-28T08:46:48;6.20;;;3.05;;
20697;SDS011;10508;50.956;4.640;2022-11-28T08:49:14;6.32;;;3.65;;
20697;SDS011;10508;50.956;4.640;2022-11-28T08:51:40;5.65;;;3.30;;
20697;SDS011;10508;50.956;4.640;2022-11-28T08:54:05;7.25;;;3.75;;
20697;SDS011;10508;50.956;4.640;2022-11-28T08:56:31;8.35;;;4.10;;
20697;SDS011;10508;50.956;4.640;2022-11-28T08:58:56;17.25;;;4.53;;
20697;SDS011;10508;50.956;4.640;2022-11-28T09:01:24;8.30;;;3.58;;
20697;SDS011;10508;50.956;4.640;2022-11-28T09:03:50;8.23;;;4.65;;
20697;SDS011;10508;50.956;4.640;2022-11-28T09:06:17;10.07;;;5.10;;
20697;SDS011;10508;50.956;4.640;2022-11-28T09:08:44;14.07;;;5.25;;
20697;SDS011;10508;50.956;4.640;2022-11-28T09:11:11;12.30;;;4.85;;
20697;SDS011;10508;50.956;4.640;2022-11-28T09:13:38;10.50;;;5.05;;
20697;SDS011;10508;50.956;4.640;2022-11-28T09:16:04;11.18;;;4.47;;
20697;SDS011;10508;50.956;4.640;2022-11-28T09:18:30;10.43;;;4.90;;
20697;SDS011;10508;50.956;4.640;2022-11-28T09:20:57;9.48;;;5.10;;
20697;SDS011;10508;50.956;4.640;2022-11-28T09:23:28;12.88;;;4.88;;
20697;SDS011;10508;50.956;4.640;2022-11-28T09:25:54;11.98;;;5.60;;
20697;SDS011;10508;50.956;4.640;2022-11-28T09:28:20;18.05;;;5.13;;
20697;SDS011;10508;50.956;4.640;2022-11-28T09:30:46;9.80;;;4.68;;
20697;SDS011;10508;50.956;4.640;2022-11-28T09:33:11;13.90;;;6.18;;
20697;SDS011;10508;50.956;4.640;2022-11-28T09:35:40;11.05;;;4.95;;
20697;SDS011;10508;50.956;4.640;2022-11-28T09:38:06;14.32;;;6.53;;
20697;SDS011;10508;50.956;4.640;2022-11-28T09:43:02;8.98;;;4.93;;
20697;SDS011;10508;50.956;4.640;2022-11-28T09:45:30;10.43;;;4.70;;
20697;SDS011;10508;50.956;4.640;2022-11-28T09:48:00;14.57;;;5.00;;
20697;SDS011;10508;50.956;4.640;2022-11-28T09:50:41;12.25;;;5.13;;
20697;SDS011;10508;50.956;4.640;2022-11-28T09:53:20;12.25;;;5.90;;
20697;SDS011;10508;50.956;4.640;2022-11-28T10:01:23;11.18;;;5.25;;
20697;SDS011;10508;50.956;4.640;2022-11-28T10:09:37;12.02;;;4.90;;
20697;SDS011;10508;50.956;4.640;2022-11-28T10:20:13;10.75;;;5.43;;
20697;SDS011;10508;50.956;4.640;2022-11-28T10:22:47;15.23;;;5.32;;
20697;SDS011;10508;50.956;4.640;2022-11-28T10:25:39;12.05;;;5.43;;
20697;SDS011;10508;50.956;4.640;2022-11-28T10:28:18;14.32;;;5.57;;
20697;SDS011;10508;50.956;4.640;2022-11-28T10:30:55;11.85;;;5.13;;
20697;SDS011;10508;50.956;4.640;2022-11-28T10:33:28;13.50;;;5.38;;
20697;SDS011;10508;50.956;4.640;2022-11-28T10:36:01;12.50;;;5.45;;
20697;SDS011;10508;50.956;4.640;2022-11-28T10:38:28;10.80;;;4.93;;
20697;SDS011;10508;50.956;4.640;2022-11-28T10:46:27;16.92;;;5.43;;
20697;SDS011;10508;50.956;4.640;2022-11-28T10:49:47;12.48;;;5.15;;
20697;SDS011;10508;50.956;4.640;2022-11-28T10:54:39;9.55;;;4.72;;
20697;SDS011;10508;50.956;4.640;2022-11-28T10:57:16;12.73;;;5.28;;
20697;SDS011;10508;50.956;4.640;2022-11-28T11:05:34;8.77;;;4.47;;
20697;SDS011;10508;50.956;4.640;2022-11-28T11:10:50;11.73;;;5.90;;
20697;SDS011;10508;50.956;4.640;2022-11-28T11:13:22;7.55;;;4.35;;
20697;SDS011;10508;50.956;4.640;2022-11-28T11:16:11;12.35;;;5.00;;
20697;SDS011;10508;50.956;4.640;2022-11-28T11:18:37;13.27;;;4.80;;
20697;SDS011;10508;50.956;4.640;2022-11-28T11:21:20;11.48;;;5.55;;
20697;SDS011;10508;50.956;4.640;2022-11-28T11:23:48;12.20;;;4.95;;
20697;SDS011;10508;50.956;4.640;2022-11-28T11:26:25;10.57;;;5.47;;
20697;SDS011;10508;50.956;4.640;2022-11-28T11:28:57;17.98;;;5.15;;
20697;SDS011;10508;50.956;4.640;2022-11-28T11:31:37;11.65;;;5.68;;
20697;SDS011;10508;50.956;4.640;2022-11-28T11:34:16;11.57;;;4.68;;
20697;SDS011;10508;50.956;4.640;2022-11-28T11:36:44;9.65;;;4.80;;
20697;SDS011;10508;50.956;4.640;2022-11-28T11:41:37;13.90;;;5.13;;
20697;SDS011;10508;50.956;4.640;2022-11-28T11:46:54;13.82;;;5.43;;
20697;SDS011;10508;50.956;4.640;2022-11-28T11:49:40;11.30;;;5.82;;
20697;SDS011;10508;50.956;4.640;2022-11-28T11:52:13;12.32;;;5.53;;
20697;SDS011;10508;50.956;4.640;2022-11-28T11:57:11;18.20;;;6.32;;
20697;SDS011;10508;50.956;4.640;2022-11-28T11:59:39;16.02;;;6.35;;
20697;SDS011;10508;50.956;4.640;2022-11-28T12:02:35;10.18;;;5.07;;
20697;SDS011;10508;50.956;4.640;2022-11-28T12:08:24;11.68;;;5.47;;
20697;SDS011;10508;50.956;4.640;2022-11-28T12:11:09;16.52;;;5.45;;
20697;SDS011;10508;50.956;4.640;2022-11-28T12:13:37;13.90;;;6.30;;
20697;SDS011;10508;50.956;4.640;2022-11-28T12:16:22;9.98;;;4.68;;
20697;SDS011;10508;50.956;4.640;2022-11-28T12:22:06;14.95;;;6.60;;
20697;SDS011;10508;50.956;4.640;2022-11-28T12:43:11;14.38;;;5.38;;
20697;SDS011;10508;50.956;4.640;2022-11-28T12:48:15;17.17;;;5.72;;
20697;SDS011;10508;50.956;4.640;2022-11-28T12:51:23;15.65;;;5.50;;
20697;SDS011;10508;50.956;4.640;2022-11-28T12:56:27;12.68;;;5.80;;
20697;SDS011;10508;50.956;4.640;2022-11-28T13:07:16;15.43;;;5.80;;
20697;SDS011;10508;50.956;4.640;2022-11-28T13:17:52;16.30;;;5.75;;
20697;SDS011;10508;50.956;4.640;2022-11-28T13:20:25;12.20;;;5.63;;
20697;SDS011;10508;50.956;4.640;2022-11-28T13:23:16;17.50;;;6.05;;
20697;SDS011;10508;50.956;4.640;2022-11-28T13:31:26;16.60;;;5.93;;
20697;SDS011;10508;50.956;4.640;2022-11-28T13:34:03;16.05;;;5.65;;
20697;SDS011;10508;50.956;4.640;2022-11-28T13:36:36;18.75;;;6.03;;
20697;SDS011;10508;50.956;4.640;2022-11-28T13:39:14;23.15;;;6.70;;
20697;SDS011;10508;50.956;4.640;2022-11-28T13:47:29;16.70;;;6.13;;
20697;SDS011;10508;50.956;4.640;2022-11-28T13:53:02;18.65;;;6.00;;
20697;SDS011;10508;50.956;4.640;2022-11-28T13:55:45;13.93;;;5.55;;
20697;SDS011;10508;50.956;4.640;2022-11-28T13:58:27;15.48;;;5.53;;
20697;SDS011;10508;50.956;4.640;2022-11-28T14:06:26;16.38;;;6.80;;
20697;SDS011;10508;50.956;4.640;2022-11-28T14:08:59;13.82;;;4.88;;
20697;SDS011;10508;50.956;4.640;2022-11-28T14:17:17;13.38;;;4.68;;
20697;SDS011;10508;50.956;4.640;2022-11-28T14:25:26;24.52;;;4.93;;
20697;SDS011;10508;50.956;4.640;2022-11-28T14:27:57;23.90;;;5.15;;
20697;SDS011;10508;50.956;4.640;2022-11-28T14:36:00;18.00;;;4.70;;
20697;SDS011;10508;50.956;4.640;2022-11-28T14:41:00;17.42;;;4.72;;
20697;SDS011;10508;50.956;4.640;2022-11-28T14:46:16;17.73;;;4.53;;
20697;SDS011;10508;50.956;4.640;2022-11-28T14:54:33;19.48;;;5.15;;
20697;SDS011;10508;50.956;4.640;2022-11-28T14:57:00;21.52;;;4.03;;
20697;SDS011;10508;50.956;4.640;2022-11-28T14:59:31;12.75;;;3.88;;
20697;SDS011;10508;50.956;4.640;2022-11-28T15:10:06;14.05;;;4.65;;
20697;SDS011;10508;50.956;4.640;2022-11-28T15:13:09;20.52;;;4.82;;
20697;SDS011;10508;50.956;4.640;2022-11-28T15:15:48;18.20;;;4.78;;
20697;SDS011;10508;50.956;4.640;2022-11-28T15:18:16;11.70;;;4.90;;
20697;SDS011;10508;50.956;4.640;2022-11-28T15:20:45;10.98;;;3.78;;
20697;SDS011;10508;50.956;4.640;2022-11-28T15:23:24;19.77;;;5.28;;
20697;SDS011;10508;50.956;4.640;2022-11-28T15:25:55;12.25;;;4.38;;
20697;SDS011;10508;50.956;4.640;2022-11-28T15:28:22;17.75;;;4.90;;
20697;SDS011;10508;50.956;4.640;2022-11-28T15:30:53;27.13;;;5.78;;
20697;SDS011;10508;50.956;4.640;2022-11-28T15:33:20;17.10;;;5.07;;
20697;SDS011;10508;50.956;4.640;2022-11-28T15:36:34;14.43;;;5.45;;
20697;SDS011;10508;50.956;4.640;2022-11-28T15:39:00;22.92;;;5.47;;
20697;SDS011;10508;50.956;4.640;2022-11-28T15:41:26;18.38;;;5.50;;
20697;SDS011;10508;50.956;4.640;2022-11-28T15:43:55;8.60;;;4.20;;
20697;SDS011;10508;50.956;4.640;2022-11-28T15:46:27;31.40;;;6.18;;
20697;SDS011;10508;50.956;4.640;2022-11-28T15:48:56;25.60;;;7.90;;
20697;SDS011;10508;50.956;4.640;2022-11-28T15:51:29;26.27;;;6.05;;
20697;SDS011;10508;50.956;4.640;2022-11-28T15:53:56;25.63;;;6.88;;
20697;SDS011;10508;50.956;4.640;2022-11-28T15:56:23;21.73;;;8.40;;
20697;SDS011;10508;50.956;4.640;2022-11-28T15:58:50;28.65;;;8.82;;
20697;SDS011;10508;50.956;4.640;2022-11-28T16:01:17;20.98;;;6.22;;
20697;SDS011;10508;50.956;4.640;2022-11-28T16:06:13;15.88;;;5.25;;
20697;SDS011;10508;50.956;4.640;2022-11-28T16:08:45;18.17;;;4.75;;
20697;SDS011;10508;50.956;4.640;2022-11-28T16:11:17;12.15;;;4.43;;
20697;SDS011;10508;50.956;4.640;2022-11-28T16:13:44;13.98;;;4.63;;
20697;SDS011;10508;50.956;4.640;2022-11-28T16:16:13;12.95;;;4.55;;
20697;SDS011;10508;50.956;4.640;2022-11-28T16:18:54;11.25;;;3.80;;
20697;SDS011;10508;50.956;4.640;2022-11-28T16:21:27;15.77;;;6.10;;
20697;SDS011;10508;50.956;4.640;2022-11-28T16:24:02;14.30;;;4.15;;
20697;SDS011;10508;50.956;4.640;2022-11-28T16:26:40;25.45;;;5.88;;
20697;SDS011;10508;50.956;4.640;2022-11-28T16:29:16;15.57;;;5.82;;
20697;SDS011;10508;50.956;4.640;2022-11-28T16:31:42;15.32;;;5.43;;
20697;SDS011;10508;50.956;4.640;2022-11-28T16:34:11;19.10;;;5.53;;
20697;SDS011;10508;50.956;4.640;2022-11-28T16:36:38;17.00;;;6.10;;
20697;SDS011;10508;50.956;4.640;2022-11-28T16:41:34;17.35;;;5.60;;
20697;SDS011;10508;50.956;4.640;2022-11-28T16:44:02;12.23;;;5.60;;
20697;SDS011;10508;50.956;4.640;2022-11-28T16:46:39;16.77;;;5.70;;
20697;SDS011;10508;50.956;4.640;2022-11-28T16:54:45;24.48;;;6.28;;
20697;SDS011;10508;50.956;4.640;2022-11-28T16:57:12;11.32;;;5.47;;
20697;SDS011;10508;50.956;4.640;2022-11-28T16:59:41;17.58;;;6.75;;
20697;SDS011;10508;50.956;4.640;2022-11-28T17:02:26;15.15;;;6.75;;
20697;SDS011;10508;50.956;4.640;2022-11-28T17:04:52;20.92;;;5.70;;
20697;SDS011;10508;50.956;4.640;2022-11-28T17:07:19;19.52;;;6.40;;
20697;SDS011;10508;50.956;4.640;2022-11-28T17:09:46;16.25;;;4.50;;
20697;SDS011;10508;50.956;4.640;2022-11-28T17:12:15;14.32;;;4.90;;
20697;SDS011;10508;50.956;4.640;2022-11-28T17:14:51;14.93;;;4.97;;
20697;SDS011;10508;50.956;4.640;2022-11-28T17:17:18;18.52;;;4.78;;
20697;SDS011;10508;50.956;4.640;2022-11-28T17:19:47;20.50;;;5.22;;
20697;SDS011;10508;50.956;4.640;2022-11-28T17:22:13;19.33;;;5.53;;
20697;SDS011;10508;50.956;4.640;2022-11-28T17:24:43;21.50;;;5.60;;
20697;SDS011;10508;50.956;4.640;2022-11-28T17:27:14;15.60;;;5.45;;
20697;SDS011;10508;50.956;4.640;2022-11-28T17:29:40;16.20;;;5.60;;
20697;SDS011;10508;50.956;4.640;2022-11-28T17:32:13;16.63;;;6.07;;
20697;SDS011;10508;50.956;4.640;2022-11-28T17:34:39;15.35;;;5.88;;
20697;SDS011;10508;50.956;4.640;2022-11-28T17:37:05;21.38;;;6.28;;
20697;SDS011;10508;50.956;4.640;2022-11-28T17:39:31;15.65;;;6.28;;
20697;SDS011;10508;50.956;4.640;2022-11-28T17:41:58;21.55;;;7.25;;
20697;SDS011;10508;50.956;4.640;2022-11-28T17:44:27;18.08;;;6.97;;
20697;SDS011;10508;50.956;4.640;2022-11-28T17:47:10;26.42;;;7.00;;
20697;SDS011;10508;50.956;4.640;2022-11-28T17:49:35;20.77;;;7.70;;
20697;SDS011;10508;50.956;4.640;2022-11-28T17:52:01;19.65;;;8.13;;
20697;SDS011;10508;50.956;4.640;2022-11-28T17:54:27;23.65;;;8.07;;
20697;SDS011;10508;50.956;4.640;2022-11-28T17:56:52;21.58;;;8.32;;
20697;SDS011;10508;50.956;4.640;2022-11-28T17:59:20;20.10;;;7.85;;
20697;SDS011;10508;50.956;4.640;2022-11-28T18:01:47;22.77;;;7.75;;
20697;SDS011;10508;50.956;4.640;2022-11-28T18:04:13;20.33;;;9.30;;
20697;SDS011;10508;50.956;4.640;2022-11-28T18:06:41;21.95;;;8.02;;
20697;SDS011;10508;50.956;4.640;2022-11-28T18:09:09;30.75;;;8.50;;
20697;SDS011;10508;50.956;4.640;2022-11-28T18:11:34;21.00;;;8.32;;
20697;SDS011;10508;50.956;4.640;2022-11-28T18:14:00;27.20;;;9.38;;
20697;SDS011;10508;50.956;4.640;2022-11-28T18:16:26;29.30;;;8.82;;
20697;SDS011;10508;50.956;4.640;2022-11-28T18:18:54;24.52;;;9.23;;
20697;SDS011;10508;50.956;4.640;2022-11-28T18:21:19;22.33;;;8.13;;
20697;SDS011;10508;50.956;4.640;2022-11-28T18:23:46;24.20;;;8.18;;
20697;SDS011;10508;50.956;4.640;2022-11-28T18:26:15;23.33;;;8.85;;